Time;durP1;ratioP1;P1;durP2;ratioP2;P2;SDS_P1;SDS_P2;PMS_P1;PMS_P2;Temp;Humidity;BMP_temperature;BMP_pressure;BME280_temperature;BME280_humidity;BME280_pressure;Samples;Min_cycle;Max_cycle;Signal;HPM_P1;HPM_P2
2022/09/21 00:04:32;;;;;;;8.00;6.20;;;;;9.00;99721.00;;;;16473276;28;20235;-76
2022/09/21 00:12:37;;;;;;;8.20;6.57;;;;;9.20;99730.00;;;;16473693;28;20366;-73
2022/09/21 00:20:42;;;;;;;7.70;6.10;;;;;9.10;99726.00;;;;16465980;28;20242;-78
2022/09/21 00:28:45;;;;;;;10.37;7.00;;;;;9.30;99721.00;;;;16470358;28;20615;-74
2022/09/21 00:36:49;;;;;;;7.23;6.60;;;;;9.00;99723.00;;;;16467455;28;20310;-77
2022/09/21 00:44:51;;;;;;;7.50;6.80;;;;;9.20;99713.00;;;;16463641;28;20230;-75
2022/09/21 00:52:58;;;;;;;9.50;7.93;;;;;9.30;99715.00;;;;16463196;28;20260;-77
2022/09/21 01:01:02;;;;;;;9.10;7.80;;;;;9.00;99721.00;;;;16466269;28;20624;-75
2022/09/21 01:09:06;;;;;;;9.27;7.50;;;;;9.40;99721.00;;;;16469045;28;20630;-75
2022/09/21 01:17:13;;;;;;;13.70;8.83;;;;;9.70;99715.00;;;;16467072;28;20787;-78
2022/09/21 01:25:27;;;;;;;8.93;8.03;;;;;9.30;99719.00;;;;16469813;28;20205;-74
2022/09/21 01:33:36;;;;;;;7.57;6.87;;;;;8.70;99734.00;;;;16481389;28;20246;-74
2022/09/21 01:41:40;;;;;;;11.50;8.10;;;;;8.30;99740.00;;;;16467228;28;20646;-74
2022/09/21 01:49:48;;;;;;;9.70;7.83;;;;;8.40;99736.00;;;;16450396;28;20301;-75
2022/09/21 01:57:55;;;;;;;10.13;8.20;;;;;8.30;99734.00;;;;16472257;28;20237;-74
2022/09/21 02:06:00;;;;;;;12.90;8.27;;;;;8.60;99742.00;;;;16473708;28;20658;-78
2022/09/21 02:14:04;;;;;;;9.07;8.13;;;;;8.80;99736.00;;;;16463431;28;20366;-76
2022/09/21 02:22:13;;;;;;;15.30;8.00;;;;;8.60;99730.00;;;;16454366;28;20333;-74
2022/09/21 02:30:18;;;;;;;13.07;8.30;;;;;8.40;99723.00;;;;16477560;28;20231;-75
2022/09/21 02:38:25;;;;;;;12.07;8.80;;;;;8.40;99727.00;;;;16476584;28;20315;-78
2022/09/21 02:46:30;;;;;;;9.40;8.23;;;;;8.40;99732.00;;;;16466605;28;20203;-75
2022/09/21 02:54:35;;;;;;;11.30;8.80;;;;;8.50;99734.00;;;;16458468;28;20286;-73
2022/09/21 03:02:39;;;;;;;20.67;10.10;;;;;8.40;99734.00;;;;16472102;28;20329;-74
2022/09/21 03:10:43;;;;;;;11.97;8.97;;;;;8.40;99729.00;;;;16468365;28;20300;-75
2022/09/21 03:18:45;;;;;;;10.40;9.30;;;;;8.50;99731.00;;;;16454100;28;20325;-75
2022/09/21 03:26:49;;;;;;;14.50;9.90;;;;;8.70;99731.00;;;;16477936;28;20200;-75
2022/09/21 03:34:51;;;;;;;10.03;8.97;;;;;8.30;99740.00;;;;16478808;28;20295;-75
2022/09/21 03:42:55;;;;;;;12.23;9.57;;;;;8.10;99748.00;;;;16477964;28;20358;-76
2022/09/21 03:50:58;;;;;;;12.17;10.10;;;;;8.10;99744.00;;;;16458222;28;20272;-75
2022/09/21 03:59:01;;;;;;;11.50;9.57;;;;;8.10;99742.00;;;;16455538;28;20229;-75
2022/09/21 04:07:04;;;;;;;14.10;10.73;;;;;7.80;99743.00;;;;16459214;28;20795;-75
2022/09/21 04:15:10;;;;;;;12.70;10.70;;;;;8.40;99748.00;;;;16461079;28;20223;-75
2022/09/21 04:23:12;;;;;;;11.83;9.90;;;;;9.00;99748.00;;;;16451527;28;20240;-75
2022/09/21 04:31:16;;;;;;;13.07;9.87;;;;;8.30;99762.00;;;;16458692;28;20214;-75
2022/09/21 04:39:18;;;;;;;14.37;10.27;;;;;7.70;99768.00;;;;16459719;28;20700;-75
2022/09/21 04:47:24;;;;;;;12.00;10.80;;;;;7.90;99779.00;;;;16439326;28;20290;-75
2022/09/21 04:55:29;;;;;;;13.37;11.97;;;;;8.00;99774.00;;;;16450159;28;20505;-74
2022/09/21 05:03:33;;;;;;;12.67;10.17;;;;;8.20;99782.00;;;;16439179;28;20316;-74
2022/09/21 05:11:35;;;;;;;11.30;9.90;;;;;7.90;99789.00;;;;16473146;28;20230;-73
2022/09/21 05:19:39;;;;;;;12.53;10.87;;;;;7.80;99787.00;;;;16470953;23;20240;-48
2022/09/21 05:27:42;;;;;;;15.33;10.70;;;;;7.90;99791.00;;;;16491200;28;20249;-48
2022/09/21 05:35:53;;;;;;;12.20;9.77;;;;;8.20;99787.00;;;;16462400;28;20229;-48
2022/09/21 05:43:56;;;;;;;16.97;10.63;;;;;8.60;99779.00;;;;16467320;28;20209;-49
2022/09/21 05:52:05;;;;;;;18.53;12.37;;;;;8.30;99785.00;;;;16471062;28;20221;-50
2022/09/21 06:00:14;;;;;;;14.10;11.57;;;;;8.90;99790.00;;;;16474970;28;20231;-48
2022/09/21 06:08:18;;;;;;;12.20;10.60;;;;;9.90;99777.00;;;;16467930;28;20738;-48
2022/09/21 06:16:21;;;;;;;14.43;9.83;;;;;10.50;99784.00;;;;16452479;28;20220;-48
2022/09/21 06:24:24;;;;;;;11.40;9.80;;;;;10.70;99797.00;;;;16463599;28;20212;-48
2022/09/21 06:32:27;;;;;;;12.70;9.30;;;;;11.00;99790.00;;;;16476728;28;20251;-46
2022/09/21 06:40:32;;;;;;;11.27;9.63;;;;;11.10;99785.00;;;;16477511;28;20236;-46
2022/09/21 06:48:35;;;;;;;13.20;9.37;;;;;11.30;99787.00;;;;16462144;28;20224;-48
2022/09/21 06:56:39;;;;;;;10.10;9.07;;;;;11.60;99779.00;;;;16472387;28;20231;-48
2022/09/21 07:04:41;;;;;;;14.20;11.97;;;;;12.20;99783.00;;;;16485904;28;20436;-50
2022/09/21 07:12:45;;;;;;;10.63;8.50;;;;;12.10;99773.00;;;;16492214;28;20225;-50
2022/09/21 07:20:47;;;;;;;10.37;8.10;;;;;12.70;99772.00;;;;16478595;28;20221;-50
2022/09/21 07:28:51;;;;;;;9.37;8.00;;;;;12.80;99772.00;;;;16494012;28;20223;-48
2022/09/21 07:36:54;;;;;;;8.63;7.20;;;;;13.20;99774.00;;;;16495655;28;20592;-49
2022/09/21 07:45:00;;;;;;;9.67;7.60;;;;;13.50;99769.00;;;;16478501;28;20209;-49
2022/09/21 07:53:02;;;;;;;11.57;8.40;;;;;13.40;99773.00;;;;16472595;28;20282;-50
2022/09/21 08:01:07;;;;;;;10.53;7.40;;;;;14.00;99761.00;;;;16470370;28;20222;-50
2022/09/21 08:09:09;;;;;;;8.20;7.40;;;;;13.80;99766.00;;;;16481013;28;20231;-49
2022/09/21 08:17:13;;;;;;;12.03;7.17;;;;;14.30;99757.00;;;;16457660;28;20239;-50
2022/09/21 08:25:16;;;;;;;5.20;4.37;;;;;14.80;99765.00;;;;16457121;28;20250;-50
2022/09/21 08:33:20;;;;;;;8.00;6.10;;;;;15.50;99753.00;;;;16466975;28;20227;-50
2022/09/21 08:41:25;;;;;;;9.03;5.77;;;;;15.10;99760.00;;;;16470984;28;20235;-49
2022/09/21 08:49:29;;;;;;;7.97;7.17;;;;;14.80;99761.00;;;;16455705;28;20241;-49
2022/09/21 08:57:34;;;;;;;6.67;5.70;;;;;15.60;99750.00;;;;16456747;28;20238;-50
2022/09/21 09:05:46;;;;;;;10.23;8.40;;;;;15.40;99738.00;;;;16472943;28;20219;-49
2022/09/21 09:14:08;;;;;;;8.17;6.13;;;;;16.40;99734.00;;;;16473077;28;20204;-49
2022/09/21 09:22:17;;;;;;;7.20;5.30;;;;;16.60;99719.00;;;;16466204;28;20240;-48
2022/09/21 09:30:21;;;;;;;9.83;5.23;;;;;17.30;99713.00;;;;16468118;28;20760;-48
2022/09/21 09:38:30;;;;;;;5.27;4.60;;;;;17.90;99710.00;;;;16475939;28;20420;-47
2022/09/21 09:46:37;;;;;;;7.07;4.20;;;;;19.30;99689.00;;;;16448949;28;20217;-49
2022/09/21 09:54:41;;;;;;;4.30;3.90;;;;;18.50;99685.00;;;;16447194;28;20200;-48
2022/09/21 10:02:48;;;;;;;4.03;2.67;;;;;17.60;99688.00;;;;16450738;28;20224;-49
2022/09/21 10:10:52;;;;;;;6.20;3.60;;;;;16.40;99694.00;;;;16450734;28;20556;-49
2022/09/21 10:18:58;;;;;;;3.87;2.60;;;;;18.20;99683.00;;;;16463602;28;20223;-48
2022/09/21 10:27:09;;;;;;;2.87;1.90;;;;;20.10;99660.00;;;;16471739;28;20353;-49
2022/09/21 10:35:18;;;;;;;1.77;1.10;;;;;21.10;99654.00;;;;16477721;28;20240;-51
2022/09/21 10:43:26;;;;;;;2.33;1.57;;;;;20.00;99649.00;;;;16487608;28;20303;-50
2022/09/21 10:51:30;;;;;;;2.10;1.27;;;;;19.80;99637.00;;;;16497629;28;20258;-49
2022/09/21 10:59:36;;;;;;;2.53;2.33;;;;;20.30;99640.00;;;;16479420;28;20233;-49
2022/09/21 11:07:45;;;;;;;2.13;1.50;;;;;21.90;99630.00;;;;16482892;28;20226;-49
2022/09/21 11:15:54;;;;;;;1.30;1.20;;;;;22.20;99626.00;;;;16476701;28;20217;-50
2022/09/21 11:24:04;;;;;;;1.30;0.90;;;;;23.10;99615.00;;;;16486623;28;20233;-49
2022/09/21 11:32:18;;;;;;;1.70;1.20;;;;;23.60;99618.00;;;;16489181;28;20224;-50
2022/09/21 11:40:33;;;;;;;2.13;1.13;;;;;24.80;99607.00;;;;16482882;28;20303;-49
2022/09/21 11:48:48;;;;;;;1.37;1.20;;;;;25.10;99593.00;;;;16454019;28;20241;-49
2022/09/21 11:56:52;;;;;;;0.90;0.80;;;;;24.80;99583.00;;;;16471768;28;20221;-49
2022/09/21 12:05:00;;;;;;;2.40;1.10;;;;;25.40;99578.00;;;;16492619;28;20211;-48
2022/09/21 12:13:07;;;;;;;2.20;1.20;;;;;26.70;99580.00;;;;16465086;28;20197;-49
2022/09/21 12:21:15;;;;;;;4.73;1.10;;;;;26.00;99574.00;;;;16467697;28;20711;-50
2022/09/21 12:29:24;;;;;;;1.93;1.30;;;;;25.70;99572.00;;;;16475743;28;20248;-50
2022/09/21 12:37:33;;;;;;;1.77;0.70;;;;;26.00;99567.00;;;;16470348;28;20228;-49
2022/09/21 12:45:38;;;;;;;1.00;0.80;;;;;25.70;99571.00;;;;16463256;28;20252;-49
2022/09/21 12:53:46;;;;;;;1.87;1.20;;;;;26.50;99564.00;;;;16476003;28;20193;-50
2022/09/21 13:01:52;;;;;;;1.60;1.20;;;;;28.60;99556.00;;;;16472048;28;20232;-49
2022/09/21 13:09:56;;;;;;;1.77;1.00;;;;;27.90;99563.00;;;;16467869;28;20776;-49
2022/09/21 13:18:00;;;;;;;2.37;1.30;;;;;25.70;99560.00;;;;16475013;28;20565;-48
2022/09/21 13:26:06;;;;;;;1.77;1.50;;;;;25.40;99563.00;;;;16478423;28;20611;-50
2022/09/21 13:34:23;;;;;;;3.33;1.43;;;;;27.00;99549.00;;;;16482215;28;20771;-50
2022/09/21 13:42:47;;;;;;;1.17;0.80;;;;;26.80;99556.00;;;;16484056;28;20235;-48
2022/09/21 13:50:49;;;;;;;2.60;1.60;;;;;24.10;99554.00;;;;16479076;28;20311;-49
2022/09/21 13:58:56;;;;;;;3.83;1.93;;;;;23.40;99547.00;;;;16460304;28;20232;-49
2022/09/21 14:07:01;;;;;;;1.13;0.80;;;;;22.80;99544.00;;;;16474065;28;20215;-49
2022/09/21 14:15:34;;;;;;;1.33;0.90;;;;;26.40;99529.00;;;;16470426;28;20300;-49
2022/09/21 14:23:37;;;;;;;1.53;1.00;;;;;24.50;99530.00;;;;16468278;28;20232;-49
2022/09/21 14:31:41;;;;;;;2.13;1.40;;;;;25.90;99527.00;;;;16462498;28;20290;-50
2022/09/21 14:39:45;;;;;;;2.30;2.10;;;;;26.10;99520.00;;;;16467186;28;20232;-50
2022/09/21 14:48:01;;;;;;;1.93;1.30;;;;;27.80;99522.00;;;;16451340;28;20227;-50
2022/09/21 14:56:21;;;;;;;1.70;1.40;;;;;26.80;99515.00;;;;16476570;28;20474;-49
2022/09/21 15:04:39;;;;;;;1.83;1.10;;;;;26.00;99504.00;;;;16469393;28;20295;-49
2022/09/21 15:12:47;;;;;;;2.90;1.00;;;;;26.60;99503.00;;;;16460986;28;20224;-49
2022/09/21 15:21:00;;;;;;;4.00;0.87;;;;;24.70;99499.00;;;;16472045;28;20764;-49
2022/09/21 15:29:06;;;;;;;2.20;1.63;;;;;27.50;99496.00;;;;16462526;28;20224;-49
2022/09/21 15:37:17;;;;;;;1.70;1.57;;;;;23.80;99501.00;;;;16471667;28;20212;-49
2022/09/21 15:45:19;;;;;;;4.07;2.67;;;;;27.20;99497.00;;;;16476792;28;20224;-50
2022/09/21 15:53:25;;;;;;;2.67;1.90;;;;;27.70;99496.00;;;;16474075;28;20208;-49
2022/09/21 16:01:28;;;;;;;5.80;2.00;;;;;27.40;99498.00;;;;16485870;28;20235;-49
2022/09/21 16:09:43;;;;;;;2.33;1.40;;;;;27.30;99495.00;;;;16482537;28;20224;-49
2022/09/21 16:17:56;;;;;;;1.47;1.10;;;;;26.60;99498.00;;;;16461539;28;20228;-49
2022/09/21 16:26:02;;;;;;;1.23;1.00;;;;;25.10;99504.00;;;;16466894;28;20248;-49
2022/09/21 16:34:20;;;;;;;4.63;4.20;;;;;25.50;99506.00;;;;16479291;28;20203;-49
2022/09/21 16:42:30;;;;;;;1.20;1.10;;;;;25.00;99520.00;;;;16465844;28;20221;-49
2022/09/21 16:50:32;;;;;;;2.30;1.43;;;;;24.40;99529.00;;;;16470199;28;20224;-50
2022/09/21 16:58:36;;;;;;;3.40;1.13;;;;;22.80;99533.00;;;;16480817;28;20230;-49
2022/09/21 17:06:38;;;;;;;2.30;1.23;;;;;21.30;99539.00;;;;16489365;28;20228;-49
2022/09/21 17:14:42;;;;;;;1.50;1.40;;;;;21.40;99542.00;;;;16484561;28;20208;-49
2022/09/21 17:22:45;;;;;;;4.03;2.80;;;;;21.90;99541.00;;;;16489342;28;20701;-50
2022/09/21 17:30:49;;;;;;;3.20;1.97;;;;;17.40;99569.00;;;;16469372;28;20735;-49
2022/09/21 17:38:51;;;;;;;2.33;2.13;;;;;16.90;99583.00;;;;16448276;28;20232;-49
2022/09/21 17:46:58;;;;;;;4.93;2.50;;;;;15.10;99594.00;;;;16436765;28;20228;-49
2022/09/21 17:55:03;;;;;;;4.50;2.90;;;;;14.80;99604.00;;;;16450933;28;20207;-49
2022/09/21 18:03:15;;;;;;;2.67;2.43;;;;;14.30;99607.00;;;;16472140;28;20223;-48
2022/09/21 18:11:48;;;;;;;3.50;3.20;;;;;13.70;99618.00;;;;16459577;28;20237;-48
2022/09/21 18:20:03;;;;;;;3.70;2.40;;;;;13.40;99629.00;;;;16476144;28;20222;-48
2022/09/21 18:28:13;;;;;;;3.10;2.80;;;;;13.10;99637.00;;;;16463863;28;20282;-49
2022/09/21 18:36:22;;;;;;;4.03;2.83;;;;;12.80;99644.00;;;;16482111;28;20226;-49
2022/09/21 18:44:28;;;;;;;2.40;2.20;;;;;12.40;99649.00;;;;16481349;28;20225;-48
2022/09/21 18:52:41;;;;;;;3.20;2.43;;;;;12.50;99651.00;;;;16478876;28;20231;-50
2022/09/21 19:00:44;;;;;;;5.37;3.27;;;;;12.10;99661.00;;;;16484496;28;20730;-49
2022/09/21 19:08:54;;;;;;;3.27;2.60;;;;;11.80;99660.00;;;;16481723;28;20216;-49
2022/09/21 19:17:07;;;;;;;3.70;2.83;;;;;11.70;99655.00;;;;16481800;28;20223;-48
2022/09/21 19:25:15;;;;;;;8.20;3.10;;;;;11.60;99654.00;;;;16485828;28;20224;-49
2022/09/21 19:33:24;;;;;;;4.40;3.10;;;;;11.50;99657.00;;;;16482218;28;20665;-50
2022/09/21 19:41:38;;;;;;;5.00;2.83;;;;;11.80;99657.00;;;;16478074;28;20496;-49
2022/09/21 19:49:47;;;;;;;4.17;2.80;;;;;11.30;99664.00;;;;16465437;28;20220;-49
2022/09/21 20:06:16;;;;;;;5.23;3.10;;;;;11.10;99672.00;;;;16454583;28;20243;-50
2022/09/21 20:14:33;;;;;;;3.43;3.13;;;;;11.00;99669.00;;;;16460749;28;20200;-50
2022/09/21 20:22:38;;;;;;;3.63;3.07;;;;;10.80;99660.00;;;;16466863;28;20228;-49
2022/09/21 20:30:41;;;;;;;3.63;3.33;;;;;10.60;99663.00;;;;16465457;28;20215;-49
2022/09/21 20:38:44;;;;;;;3.90;2.80;;;;;10.70;99662.00;;;;16458911;28;20316;-49
2022/09/21 20:46:48;;;;;;;4.90;3.57;;;;;10.40;99666.00;;;;16453129;28;20231;-49
2022/09/21 20:54:50;;;;;;;3.97;3.13;;;;;10.50;99681.00;;;;16457221;28;20193;-49
2022/09/21 21:02:56;;;;;;;4.00;3.53;;;;;10.50;99684.00;;;;16456196;28;20231;-49
2022/09/21 21:10:59;;;;;;;4.10;3.70;;;;;10.60;99699.00;;;;16466188;28;20359;-50
2022/09/21 21:19:03;;;;;;;2.83;2.63;;;;;10.30;99697.00;;;;16460909;28;20238;-49
2022/09/21 21:27:06;;;;;;;5.80;3.63;;;;;10.10;99701.00;;;;16479818;28;20763;-49
2022/09/21 21:35:10;;;;;;;3.70;3.40;;;;;9.80;99700.00;;;;16492885;28;20234;-49
2022/09/21 21:43:12;;;;;;;3.93;3.40;;;;;9.60;99690.00;;;;16490494;28;20231;-49
2022/09/21 21:51:16;;;;;;;3.77;3.47;;;;;9.80;99694.00;;;;16479888;28;20228;-50
2022/09/21 21:59:18;;;;;;;3.57;2.83;;;;;9.80;99693.00;;;;16461816;28;20227;-49
2022/09/21 22:07:22;;;;;;;3.53;3.23;;;;;9.50;99688.00;;;;16466646;28;20234;-49
2022/09/21 22:15:25;;;;;;;3.57;3.27;;;;;9.60;99684.00;;;;16412380;23;20228;-79
2022/09/21 22:23:29;;;;;;;5.13;3.33;;;;;9.50;99683.00;;;;16409398;28;20605;-75
2022/09/21 22:31:34;;;;;;;4.03;3.20;;;;;9.50;99677.00;;;;16409726;28;20272;-75
2022/09/21 22:39:37;;;;;;;3.63;3.20;;;;;9.30;99682.00;;;;16403954;28;20224;-74
2022/09/21 22:47:41;;;;;;;4.43;3.77;;;;;9.30;99693.00;;;;16405647;28;20758;-76
2022/09/21 22:55:45;;;;;;;3.73;3.43;;;;;9.10;99680.00;;;;16410853;28;20231;-75
2022/09/21 23:13:42;;;;;;;3.63;3.27;;;;;9.50;99672.00;;;;16397988;28;20236;-75
2022/09/21 23:21:45;;;;;;;4.57;3.23;;;;;9.30;99662.00;;;;16371442;28;20231;-76
2022/09/21 23:29:49;;;;;;;4.37;3.97;;;;;8.90;99662.00;;;;16400398;28;20494;-75
2022/09/21 23:37:52;;;;;;;4.10;3.80;;;;;9.10;99660.00;;;;16399278;28;20628;-74
2022/09/21 23:45:55;;;;;;;4.50;4.20;;;;;8.90;99661.00;;;;16397049;28;20222;-77
2022/09/21 23:53:58;;;;;;;4.50;3.33;;;;;9.20;99650.00;;;;16412319;28;20230;-75
